createdAt,value
2019-06-15T00:02:30.246Z,41.62
2019-06-15T00:07:26.136Z,42.74
2019-06-15T00:12:22.104Z,46.47
2019-06-15T00:17:18.024Z,48.56
2019-06-15T00:22:13.978Z,48.73
2019-06-15T00:27:09.910Z,49.89
2019-06-15T00:32:06.179Z,50.28
2019-06-15T00:37:04.690Z,51.52
2019-06-15T00:42:00.038Z,52.81
2019-06-15T00:46:56.029Z,54.17
2019-06-15T00:51:52.172Z,55.08
2019-06-15T00:56:48.095Z,55.77
2019-06-15T01:01:44.145Z,56.51
2019-06-15T01:06:40.063Z,56.40
2019-06-15T01:11:36.089Z,56.50
2019-06-15T01:16:32.013Z,56.71
2019-06-15T01:21:28.035Z,56.86
2019-06-15T01:26:23.958Z,56.79
2019-06-15T01:31:19.879Z,56.36
2019-06-15T01:36:15.802Z,56.59
2019-06-15T01:41:11.723Z,57.09
2019-06-15T01:46:07.640Z,55.33
2019-06-15T01:51:03.771Z,53.75
2019-06-15T01:55:59.706Z,53.21
2019-06-15T02:00:55.654Z,53.49
2019-06-15T02:05:51.687Z,53.75
2019-06-15T02:10:47.625Z,54.05
2019-06-15T02:15:43.545Z,54.84
2019-06-15T02:20:39.490Z,54.51
2019-06-15T02:25:36.691Z,54.46
2019-06-15T02:30:33.499Z,54.89
2019-06-15T02:35:29.480Z,55.52
2019-06-15T02:40:25.475Z,55.96
2019-06-15T02:45:21.726Z,55.63
2019-06-15T02:50:17.949Z,55.28
2019-06-15T02:55:14.105Z,55.49
2019-06-15T03:00:10.862Z,55.64
2019-06-15T03:05:07.102Z,55.67
2019-06-15T03:10:05.326Z,55.72
2019-06-15T03:15:01.266Z,55.82
2019-06-15T03:19:57.369Z,55.34
2019-06-15T03:24:53.292Z,55.79
2019-06-15T03:29:49.211Z,55.61
2019-06-15T03:34:45.152Z,54.81
2019-06-15T03:39:41.075Z,55.03
2019-06-15T03:44:37.010Z,55.56
2019-06-15T03:49:33.219Z,55.30
2019-06-15T03:54:29.148Z,55.78
2019-06-15T03:59:25.153Z,55.46
2019-06-15T04:04:21.082Z,55.70
2019-06-15T04:09:17.924Z,55.83
2019-06-15T04:14:13.823Z,55.84
2019-06-15T04:19:09.830Z,55.77
2019-06-15T04:24:05.753Z,55.66
2019-06-15T04:29:01.660Z,56.38
2019-06-15T04:33:57.619Z,56.30
2019-06-15T04:39:06.578Z,55.67
2019-06-15T04:44:02.906Z,55.33
2019-06-15T04:48:58.838Z,55.10
2019-06-15T04:53:54.769Z,55.15
2019-06-15T04:58:50.714Z,54.83
2019-06-15T05:03:46.729Z,54.60
2019-06-15T05:08:49.821Z,53.28
2019-06-15T05:13:45.836Z,52.75
2019-06-15T05:18:41.751Z,51.92
2019-06-15T05:23:37.763Z,51.92
2019-06-15T05:28:33.685Z,52.12
2019-06-15T05:33:29.606Z,52.47
2019-06-15T05:38:30.690Z,52.61
2019-06-15T05:43:26.603Z,52.76
2019-06-15T05:48:22.522Z,52.42
2019-06-15T05:53:18.412Z,52.32
2019-06-15T05:58:14.330Z,51.16
2019-06-15T06:03:10.255Z,49.00
2019-06-15T06:08:06.173Z,48.31
2019-06-15T06:13:02.295Z,49.26
2019-06-15T06:17:58.267Z,46.44
2019-06-15T06:22:54.189Z,47.34
2019-06-15T06:27:50.136Z,47.45
2019-06-15T06:32:46.056Z,50.62
2019-06-15T06:37:41.978Z,50.71
2019-06-15T06:42:38.048Z,52.17
2019-06-15T06:47:33.977Z,53.21
2019-06-15T06:52:29.888Z,53.91
2019-06-15T06:57:25.844Z,54.46
2019-06-15T07:02:21.794Z,54.27
2019-06-15T07:07:17.708Z,53.19
2019-06-15T07:12:13.655Z,52.80
2019-06-15T07:17:09.567Z,54.78
2019-06-15T07:22:05.625Z,55.53
2019-06-15T07:27:01.547Z,55.10
2019-06-15T07:31:57.469Z,53.76
2019-06-15T07:36:53.437Z,52.36
2019-06-15T07:41:49.357Z,52.86
2019-06-15T07:46:45.308Z,52.82
2019-06-15T07:51:41.350Z,52.05
2019-06-15T07:56:37.267Z,52.68
2019-06-15T08:01:33.222Z,50.82
2019-06-15T08:06:29.139Z,52.39
2019-06-15T08:11:25.060Z,53.41
2019-06-15T08:16:20.976Z,53.65
2019-06-15T08:21:16.953Z,54.10
2019-06-15T08:26:12.966Z,53.75
2019-06-15T08:31:08.885Z,54.57
2019-06-15T08:36:04.926Z,54.41
2019-06-15T08:41:01.667Z,53.59
2019-06-15T08:45:58.031Z,53.60
2019-06-15T08:50:54.298Z,54.59
2019-06-15T08:55:50.493Z,54.72
2019-06-15T09:00:46.445Z,55.12
2019-06-15T09:05:42.465Z,53.89
2019-06-15T09:10:38.453Z,52.96
2019-06-15T09:15:44.192Z,50.86
2019-06-15T09:20:40.705Z,50.05
2019-06-15T09:25:36.947Z,51.00
2019-06-15T09:30:38.454Z,51.54
2019-06-15T09:35:36.473Z,52.23
2019-06-15T09:40:33.263Z,52.38
2019-06-15T09:45:32.924Z,50.91
2019-06-15T09:50:27.870Z,50.37
2019-06-15T09:55:23.905Z,50.01
2019-06-15T10:00:23.452Z,49.94
2019-06-15T10:05:24.969Z,49.85
2019-06-15T10:10:22.075Z,49.07
2019-06-15T10:15:19.960Z,48.60
2019-06-15T10:20:16.289Z,47.31
2019-06-15T10:25:12.305Z,49.65
2019-06-15T10:30:08.832Z,48.97
2019-06-15T10:35:05.185Z,49.66
2019-06-15T10:40:01.616Z,50.18
2019-06-15T10:44:57.531Z,51.65
2019-06-15T10:49:53.514Z,50.81
2019-06-15T10:54:49.565Z,50.69
2019-06-15T10:59:56.821Z,50.42
2019-06-15T11:04:43.413Z,48.00
2019-06-15T11:09:42.890Z,46.34
2019-06-15T11:14:38.811Z,45.49
2019-06-15T11:19:34.781Z,44.72
2019-06-15T11:24:30.945Z,45.37
2019-06-15T11:29:26.861Z,45.59
2019-06-15T11:34:22.890Z,45.85
2019-06-15T11:39:19.538Z,45.79
2019-06-15T11:44:15.519Z,46.36
2019-06-15T11:49:11.436Z,47.15
2019-06-15T11:54:07.374Z,47.47
2019-06-15T11:59:03.563Z,48.06
2019-06-15T12:09:26.123Z,51.66
2019-06-15T12:14:22.115Z,52.91
2019-06-15T12:19:18.056Z,53.41
2019-06-15T12:24:13.981Z,52.51
2019-06-15T12:29:09.930Z,49.70
2019-06-15T12:34:06.731Z,48.03
2019-06-15T12:39:05.818Z,47.43
2019-06-15T12:44:03.996Z,48.81
2019-06-15T12:49:00.118Z,50.43
2019-06-15T12:53:56.064Z,50.21
2019-06-15T12:58:51.994Z,48.87
2019-06-15T13:03:47.929Z,47.74
2019-06-15T13:08:46.988Z,47.08
2019-06-15T13:13:42.905Z,44.87
2019-06-15T13:18:38.844Z,45.21
2019-06-15T13:23:34.774Z,46.07
2019-06-15T13:28:30.705Z,45.38
2019-06-15T13:33:26.643Z,42.00
2019-06-15T13:38:24.203Z,41.86
2019-06-15T13:43:20.315Z,43.07
2019-06-15T13:48:16.243Z,43.12
2019-06-15T13:53:12.171Z,41.86
2019-06-15T13:58:08.111Z,41.00
2019-06-15T14:03:04.046Z,39.67
2019-06-15T14:08:00.357Z,38.38
2019-06-15T14:18:20.227Z,40.43
2019-06-15T14:23:22.335Z,41.52
2019-06-15T14:28:20.276Z,40.46
2019-06-15T14:33:22.551Z,40.17
2019-06-15T14:38:24.430Z,38.60
2019-06-15T14:43:28.496Z,38.87
2019-06-15T14:48:29.703Z,37.20
2019-06-15T14:53:31.728Z,38.33
2019-06-15T14:58:29.848Z,35.58
2019-06-15T15:03:37.433Z,34.74
2019-06-15T15:08:39.330Z,35.77
2019-06-15T15:13:37.595Z,34.87
2019-06-15T15:18:38.787Z,34.86
2019-06-15T15:23:38.693Z,35.62
2019-06-15T15:28:41.243Z,35.60
2019-06-15T15:33:48.245Z,34.70
2019-06-15T15:38:48.897Z,35.44
2019-06-15T15:43:59.819Z,35.08
2019-06-15T15:49:07.029Z,35.83
2019-06-15T15:54:04.091Z,36.18
2019-06-15T15:59:09.669Z,35.03
2019-06-15T16:04:06.614Z,35.19
2019-06-15T16:09:09.561Z,35.08
2019-06-15T16:14:12.451Z,35.88
2019-06-15T16:19:13.034Z,36.06
2019-06-15T16:24:18.265Z,36.11
2019-06-15T16:29:22.569Z,35.74
2019-06-15T16:34:31.596Z,36.24
2019-06-15T16:39:29.731Z,36.23
2019-06-15T16:44:29.642Z,35.68
2019-06-15T16:49:36.307Z,34.09
2019-06-15T16:54:37.322Z,33.99
2019-06-15T16:59:38.096Z,35.13
2019-06-15T17:04:36.382Z,35.78
2019-06-15T17:09:46.478Z,35.78
2019-06-15T17:14:45.139Z,36.04
2019-06-15T17:19:46.622Z,35.22
2019-06-15T17:24:46.766Z,36.84
2019-06-15T17:29:46.866Z,36.44
2019-06-15T17:34:44.042Z,36.04
2019-06-15T17:39:48.962Z,35.93
2019-06-15T17:44:46.207Z,36.44
2019-06-15T17:49:46.903Z,37.16
2019-06-15T17:54:48.858Z,36.99
2019-06-15T17:59:47.194Z,37.58
2019-06-15T18:04:47.343Z,37.95
2019-06-15T18:09:49.981Z,37.85
2019-06-15T18:14:46.719Z,36.92
2019-06-15T18:19:46.894Z,35.96
2019-06-15T18:24:46.723Z,37.11
2019-06-15T18:29:47.152Z,36.37
2019-06-15T18:34:46.517Z,35.33
2019-06-15T18:39:46.830Z,35.46
2019-06-15T18:44:44.073Z,35.55
2019-06-15T18:49:41.040Z,36.89
2019-06-15T18:54:37.860Z,37.68
2019-06-15T18:59:36.545Z,38.45
2019-06-15T19:04:35.946Z,39.25
2019-06-15T19:09:38.016Z,39.68
2019-06-15T19:14:36.230Z,39.45
2019-06-15T19:19:33.140Z,39.24
2019-06-15T19:24:32.056Z,39.31
2019-06-15T19:29:29.184Z,39.92
2019-06-15T19:34:41.095Z,40.93
2019-06-15T19:39:38.074Z,41.57
2019-06-15T19:44:37.017Z,41.98
2019-06-15T19:49:36.148Z,42.04
2019-06-15T19:54:31.884Z,42.37
2019-06-15T19:59:32.027Z,42.68
2019-06-15T20:04:30.378Z,43.58
2019-06-15T20:09:27.953Z,44.56
2019-06-15T20:14:28.016Z,45.62
2019-06-15T20:19:29.918Z,46.25
2019-06-15T20:24:27.110Z,46.85
2019-06-15T20:29:23.284Z,47.50
2019-06-15T20:34:19.332Z,48.12
2019-06-15T20:39:16.554Z,48.68
2019-06-15T20:44:12.619Z,49.28
2019-06-15T20:49:08.550Z,49.44
2019-06-15T20:54:06.887Z,50.56
2019-06-15T20:59:02.368Z,51.26
2019-06-15T21:03:58.335Z,51.18
2019-06-15T21:09:07.192Z,51.89
2019-06-15T21:14:03.489Z,51.99
2019-06-15T21:18:59.388Z,52.76
2019-06-15T21:23:56.994Z,53.40
2019-06-15T21:28:53.056Z,53.75
2019-06-15T21:33:49.073Z,54.16
2019-06-15T21:38:58.146Z,54.27
2019-06-15T21:43:56.367Z,54.32
2019-06-15T21:48:51.993Z,54.72
2019-06-15T21:53:47.936Z,55.62
2019-06-15T21:58:43.858Z,55.91
2019-06-15T22:03:39.996Z,56.20
2019-06-15T22:08:48.478Z,56.52
2019-06-15T22:13:47.488Z,56.66
2019-06-15T22:18:47.225Z,56.90
2019-06-15T22:23:42.488Z,57.01
2019-06-15T22:28:38.422Z,57.06
2019-06-15T22:33:36.245Z,55.96
2019-06-15T22:38:39.528Z,56.24
2019-06-15T22:43:37.354Z,57.02
2019-06-15T22:48:33.278Z,57.49
2019-06-15T22:53:29.214Z,57.78
2019-06-15T22:58:27.051Z,57.99
2019-06-15T23:03:23.165Z,58.28
2019-06-15T23:08:19.095Z,57.97
2019-06-15T23:13:16.027Z,57.97
2019-06-15T23:18:12.253Z,57.65
2019-06-15T23:23:08.284Z,58.17
2019-06-15T23:28:06.933Z,58.70
2019-06-15T23:33:02.036Z,58.94
2019-06-15T23:37:57.972Z,59.00
2019-06-15T23:42:53.888Z,57.23
2019-06-15T23:47:50.148Z,58.12
2019-06-15T23:52:46.999Z,58.09
2019-06-15T23:57:43.243Z,57.85
